Time,TemperatureF,DewpointF,PressureIn,WindDirection,WindDirectionDegrees,WindSpeedMPH,WindSpeedGustMPH,Humidity,HourlyPrecipIn,Conditions,Clouds,dailyrainin,SoftwareType,DateUTC
2013-07-08 00:02:00,57.1,52.3,30.02,NNE,23,5.0,16.0,84,0.00,,,0.00,Wunderground v.1.15,2013-07-08 07:02:00,
2013-07-08 00:07:00,57.0,52.2,30.02,North,350,6.0,16.0,84,0.00,,,0.00,Wunderground v.1.15,2013-07-08 07:07:00,
2013-07-08 00:17:00,56.6,51.8,30.03,NNW,338,4.0,10.0,84,0.00,,,0.00,Wunderground v.1.15,2013-07-08 07:17:00,
2013-07-08 00:27:00,56.5,52.0,30.03,North,9,4.0,8.0,85,0.00,,,0.00,Wunderground v.1.15,2013-07-08 07:27:00,
2013-07-08 00:32:00,56.5,52.0,30.03,North,5,3.0,3.0,85,0.00,,,0.00,Wunderground v.1.15,2013-07-08 07:32:00,
2013-07-08 00:42:00,55.9,51.5,30.03,North,351,3.0,7.0,85,0.00,,,0.00,Wunderground v.1.15,2013-07-08 07:42:00,
2013-07-08 00:47:00,55.7,51.6,30.03,North,5,4.0,8.0,86,0.00,,,0.00,Wunderground v.1.15,2013-07-08 07:47:00,
2013-07-08 00:57:00,55.7,51.6,30.03,North,5,4.0,11.0,86,0.00,,,0.00,Wunderground v.1.15,2013-07-08 07:57:00,
2013-07-08 01:07:00,55.6,51.5,30.03,NNE,16,3.0,7.0,86,0.00,,,0.00,Wunderground v.1.15,2013-07-08 08:07:00,
2013-07-08 01:17:00,55.9,51.8,30.03,North,5,6.0,11.0,86,0.00,,,0.00,Wunderground v.1.15,2013-07-08 08:17:00,
2013-07-08 01:27:00,56.0,51.9,30.03,North,5,4.0,10.0,86,0.00,,,0.00,Wunderground v.1.15,2013-07-08 08:27:00,
2013-07-08 01:37:00,56.1,52.0,30.03,NNE,16,5.0,11.0,86,0.00,,,0.00,Wunderground v.1.15,2013-07-08 08:37:00,
2013-07-08 01:47:00,56.0,51.9,30.03,North,360,4.0,9.0,86,0.00,,,0.00,Wunderground v.1.15,2013-07-08 08:47:00,
2013-07-08 01:57:00,55.9,51.8,30.04,NNE,12,4.0,6.0,86,0.00,,,0.00,Wunderground v.1.15,2013-07-08 08:57:00,
2013-07-08 02:07:00,55.6,51.5,30.04,North,5,3.0,9.0,86,0.00,,,0.00,Wunderground v.1.15,2013-07-08 09:07:00,
2013-07-08 02:12:00,55.6,51.5,30.03,NNE,13,5.0,8.0,86,0.00,,,0.00,Wunderground v.1.15,2013-07-08 09:12:00,
2013-07-08 02:22:00,55.6,51.5,30.03,North,350,4.0,9.0,86,0.00,,,0.00,Wunderground v.1.15,2013-07-08 09:22:00,
2013-07-08 02:32:00,55.3,51.2,30.03,NNE,19,4.0,9.0,86,0.00,,,0.00,Wunderground v.1.15,2013-07-08 09:32:00,
2013-07-08 02:42:00,55.3,51.2,30.03,NNE,17,4.0,7.0,86,0.00,,,0.00,Wunderground v.1.15,2013-07-08 09:42:00,
2013-07-08 02:52:00,55.2,51.1,30.03,North,5,3.0,3.0,86,0.00,,,0.00,Wunderground v.1.15,2013-07-08 09:52:00,
2013-07-08 03:02:00,55.3,51.2,30.03,NNE,16,3.0,8.0,86,0.00,,,0.00,Wunderground v.1.15,2013-07-08 10:02:00,
2013-07-08 03:12:00,55.4,51.3,30.03,North,360,3.0,3.0,86,0.00,,,0.00,Wunderground v.1.15,2013-07-08 10:12:00,
2013-07-08 03:22:00,55.5,51.4,30.04,North,355,3.0,3.0,86,0.00,,,0.00,Wunderground v.1.15,2013-07-08 10:22:00,
2013-07-08 03:32:00,55.5,51.4,30.04,North,355,3.0,6.0,86,0.00,,,0.00,Wunderground v.1.15,2013-07-08 10:32:00,
2013-07-08 03:42:00,55.5,51.4,30.04,NNE,22,3.0,8.0,86,0.00,,,0.00,Wunderground v.1.15,2013-07-08 10:42:00,
2013-07-08 03:52:00,55.5,51.4,30.04,NE,36,3.0,9.0,86,0.00,,,0.00,Wunderground v.1.15,2013-07-08 10:52:00,
2013-07-08 04:02:00,55.5,51.4,30.04,NNE,21,3.0,3.0,86,0.00,,,0.00,Wunderground v.1.15,2013-07-08 11:02:00,
2013-07-08 04:07:00,55.5,51.4,30.04,NNE,13,3.0,9.0,86,0.00,,,0.00,Wunderground v.1.15,2013-07-08 11:07:00,
2013-07-08 04:12:00,55.5,51.4,30.04,NE,40,2.0,2.0,86,0.00,,,0.00,Wunderground v.1.15,2013-07-08 11:12:00,
2013-07-08 04:22:00,55.3,51.2,30.05,NNE,17,2.0,5.0,86,0.00,,,0.00,Wunderground v.1.15,2013-07-08 11:22:00,
2013-07-08 04:27:00,55.3,51.5,30.05,North,10,2.0,6.0,87,0.00,,,0.00,Wunderground v.1.15,2013-07-08 11:27:00,
2013-07-08 04:37:00,55.6,51.8,30.05,North,5,2.0,7.0,87,0.00,,,0.00,Wunderground v.1.15,2013-07-08 11:37:00,
2013-07-08 04:47:00,55.5,51.4,30.05,North,5,1.0,6.0,86,0.00,,,0.00,Wunderground v.1.15,2013-07-08 11:47:00,
2013-07-08 04:57:00,55.8,51.7,30.05,North,5,3.0,9.0,86,0.00,,,0.00,Wunderground v.1.15,2013-07-08 11:57:00,
2013-07-08 05:02:00,55.8,51.7,30.05,North,5,3.0,7.0,86,0.00,,,0.00,Wunderground v.1.15,2013-07-08 12:02:00,
2013-07-08 05:12:00,56.0,51.9,30.05,North,5,4.0,4.0,86,0.00,,,0.00,Wunderground v.1.15,2013-07-08 12:12:00,
2013-07-08 05:17:00,56.0,51.6,30.05,North,5,4.0,7.0,85,0.00,,,0.00,Wunderground v.1.15,2013-07-08 12:17:00,
2013-07-08 05:27:00,56.2,51.7,30.06,NNE,21,5.0,11.0,85,0.00,,,0.00,Wunderground v.1.15,2013-07-08 12:27:00,
2013-07-08 05:37:00,56.2,51.7,30.06,NE,53,3.0,5.0,85,0.00,,,0.00,Wunderground v.1.15,2013-07-08 12:37:00,
2013-07-08 05:47:00,56.2,51.7,30.06,NNE,17,4.0,9.0,85,0.00,,,0.00,Wunderground v.1.15,2013-07-08 12:47:00,
2013-07-08 05:52:00,56.2,51.7,30.06,NNE,32,4.0,6.0,85,0.00,,,0.00,Wunderground v.1.15,2013-07-08 12:52:00,
2013-07-08 06:02:00,56.3,51.8,30.06,NNE,15,4.0,4.0,85,0.00,,,0.00,Wunderground v.1.15,2013-07-08 13:02:00,
2013-07-08 06:12:00,56.4,51.9,30.06,NNE,30,2.0,5.0,85,0.00,,,0.00,Wunderground v.1.15,2013-07-08 13:12:00,
2013-07-08 06:22:00,56.3,51.8,30.07,North,11,3.0,7.0,85,0.00,,,0.00,Wunderground v.1.15,2013-07-08 13:22:00,
2013-07-08 06:32:00,56.4,51.9,30.07,North,5,2.0,7.0,85,0.00,,,0.00,Wunderground v.1.15,2013-07-08 13:32:00,
2013-07-08 06:42:00,56.6,52.1,30.07,North,9,2.0,2.0,85,0.00,,,0.00,Wunderground v.1.15,2013-07-08 13:42:00,
2013-07-08 06:52:00,56.8,52.0,30.07,NNE,13,4.0,11.0,84,0.00,,,0.00,Wunderground v.1.15,2013-07-08 13:52:00,
2013-07-08 07:02:00,56.9,52.1,30.07,NNE,30,4.0,9.0,84,0.00,,,0.00,Wunderground v.1.15,2013-07-08 14:02:00,
2013-07-08 07:07:00,56.9,52.1,30.08,North,5,4.0,9.0,84,0.00,,,0.00,Wunderground v.1.15,2013-07-08 14:07:00,
2013-07-08 07:17:00,57.2,52.4,30.08,North,355,2.0,6.0,84,0.00,,,0.00,Wunderground v.1.15,2013-07-08 14:17:00,
2013-07-08 07:27:00,57.3,52.2,30.08,NNE,24,4.0,9.0,83,0.00,,,0.00,Wunderground v.1.15,2013-07-08 14:27:00,
2013-07-08 07:37:00,57.5,52.4,30.08,North,9,4.0,8.0,83,0.00,,,0.00,Wunderground v.1.15,2013-07-08 14:37:00,
2013-07-08 07:47:00,57.8,52.7,30.09,NNE,32,3.0,7.0,83,0.00,,,0.00,Wunderground v.1.15,2013-07-08 14:47:00,
2013-07-08 07:57:00,57.7,52.2,30.09,North,355,5.0,10.0,82,0.00,,,0.00,Wunderground v.1.15,2013-07-08 14:57:00,
2013-07-08 08:07:00,57.8,52.3,30.09,NNE,28,5.0,13.0,82,0.00,,,0.00,Wunderground v.1.15,2013-07-08 15:07:00,
2013-07-08 08:12:00,58.0,52.5,30.09,North,360,6.0,13.0,82,0.00,,,0.00,Wunderground v.1.15,2013-07-08 15:12:00,
2013-07-08 08:22:00,58.4,52.9,30.09,North,355,5.0,12.0,82,0.00,,,0.00,Wunderground v.1.15,2013-07-08 15:22:00,
2013-07-08 08:27:00,58.5,52.7,30.09,NNE,21,5.0,12.0,81,0.00,,,0.00,Wunderground v.1.15,2013-07-08 15:27:00,
2013-07-08 08:32:00,58.5,52.7,30.09,North,360,6.0,6.0,81,0.00,,,0.00,Wunderground v.1.15,2013-07-08 15:32:00,
2013-07-08 08:37:00,58.9,53.1,30.09,NNE,16,5.0,8.0,81,0.00,,,0.00,Wunderground v.1.15,2013-07-08 15:37:00,
2013-07-08 08:47:00,59.3,53.1,30.09,North,10,6.0,11.0,80,0.00,,,0.00,Wunderground v.1.15,2013-07-08 15:47:00,
2013-07-08 08:57:00,59.0,52.8,30.09,North,11,7.0,14.0,80,0.00,,,0.00,Wunderground v.1.15,2013-07-08 15:57:00,
2013-07-08 09:07:00,59.0,52.8,30.09,NW,320,6.0,16.0,80,0.00,,,0.00,Wunderground v.1.15,2013-07-08 16:07:00,
2013-07-08 09:12:00,58.8,52.3,30.09,West,281,4.0,4.0,79,0.00,,,0.00,Wunderground v.1.15,2013-07-08 16:12:00,
2013-07-08 09:22:00,59.1,53.3,30.09,NNW,341,2.0,2.0,81,0.00,,,0.00,Wunderground v.1.15,2013-07-08 16:22:00,
2013-07-08 09:32:00,60.1,53.9,30.10,NNE,13,4.0,8.0,80,0.00,,,0.00,Wunderground v.1.15,2013-07-08 16:32:00,
2013-07-08 09:42:00,61.1,54.2,30.10,NNW,340,4.0,4.0,78,0.00,,,0.00,Wunderground v.1.15,2013-07-08 16:42:00,
2013-07-08 09:52:00,61.2,53.9,30.10,North,360,4.0,13.0,77,0.00,,,0.00,Wunderground v.1.15,2013-07-08 16:52:00,
2013-07-08 09:57:00,61.4,53.8,30.09,NNE,17,4.0,13.0,76,0.00,,,0.00,Wunderground v.1.15,2013-07-08 16:57:00,
2013-07-08 10:02:00,61.4,53.8,30.10,North,5,4.0,11.0,76,0.00,,,0.00,Wunderground v.1.15,2013-07-08 17:02:00,
2013-07-08 10:12:00,61.7,54.1,30.10,NW,325,4.0,4.0,76,0.00,,,0.00,Wunderground v.1.15,2013-07-08 17:12:00,
2013-07-08 10:22:00,61.9,53.9,30.10,NW,314,3.0,3.0,75,0.00,,,0.00,Wunderground v.1.15,2013-07-08 17:22:00,
2013-07-08 10:37:00,62.4,54.4,30.10,NNE,22,4.0,4.0,75,0.00,,,0.00,Wunderground v.1.15,2013-07-08 17:37:00,
2013-07-08 10:42:00,62.6,54.2,30.10,NW,306,3.0,8.0,74,0.00,,,0.00,Wunderground v.1.15,2013-07-08 17:42:00,
2013-07-08 10:52:00,62.8,54.4,30.10,North,5,5.0,9.0,74,0.00,,,0.00,Wunderground v.1.15,2013-07-08 17:52:00,
2013-07-08 11:02:00,62.8,54.8,30.10,ENE,57,4.0,4.0,75,0.00,,,0.00,Wunderground v.1.15,2013-07-08 18:02:00,
2013-07-08 11:07:00,62.7,54.7,30.09,NNE,18,5.0,9.0,75,0.00,,,0.00,Wunderground v.1.15,2013-07-08 18:07:00,
2013-07-08 11:17:00,62.5,54.1,30.10,North,5,6.0,13.0,74,0.00,,,0.00,Wunderground v.1.15,2013-07-08 18:17:00,
2013-07-08 11:27:00,62.5,54.1,30.10,North,355,6.0,13.0,74,0.00,,,0.00,Wunderground v.1.15,2013-07-08 18:27:00,
2013-07-08 11:42:00,62.9,54.5,30.10,NNW,327,5.0,12.0,74,0.00,,,0.00,Wunderground v.1.15,2013-07-08 18:42:00,
2013-07-08 12:02:00,62.8,54.4,30.10,NNE,13,6.0,6.0,74,0.00,,,0.00,Wunderground v.1.15,2013-07-08 19:02:00,
2013-07-08 12:17:00,62.6,54.2,30.10,NNW,333,7.0,8.0,74,0.00,,,0.00,Wunderground v.1.15,2013-07-08 19:17:00,
2013-07-08 12:32:00,62.8,54.0,30.10,North,349,7.0,16.0,73,0.00,,,0.00,Wunderground v.1.15,2013-07-08 19:32:00,
2013-07-08 12:42:00,63.1,54.7,30.10,NW,313,6.0,6.0,74,0.00,,,0.00,Wunderground v.1.15,2013-07-08 19:42:00,
2013-07-08 12:52:00,63.6,54.8,30.10,NNE,17,6.0,6.0,73,0.00,,,0.00,Wunderground v.1.15,2013-07-08 19:52:00,
2013-07-08 13:02:00,63.2,54.4,30.10,North,9,6.0,11.0,73,0.00,,,0.00,Wunderground v.1.15,2013-07-08 20:02:00,
2013-07-08 13:07:00,63.3,54.1,30.10,North,360,7.0,11.0,72,0.00,,,0.00,Wunderground v.1.15,2013-07-08 20:07:00,
2013-07-08 13:22:00,63.2,54.4,30.09,NW,319,7.0,7.0,73,0.00,,,0.00,Wunderground v.1.15,2013-07-08 20:22:00,
2013-07-08 13:27:00,63.3,54.1,30.09,NNW,344,6.0,20.0,72,0.00,,,0.00,Wunderground v.1.15,2013-07-08 20:27:00,
2013-07-08 13:47:00,63.7,54.5,30.09,WNW,293,5.0,15.0,72,0.00,,,0.00,Wunderground v.1.15,2013-07-08 20:47:00,
2013-07-08 13:57:00,63.5,53.9,30.09,NW,311,6.0,16.0,71,0.00,,,0.00,Wunderground v.1.15,2013-07-08 20:57:00,
2013-07-08 14:02:00,63.3,53.7,30.09,NNW,338,6.0,18.0,71,0.00,,,0.00,Wunderground v.1.15,2013-07-08 21:02:00,
2013-07-08 14:12:00,62.9,54.1,30.09,NNE,19,6.0,13.0,73,0.00,,,0.00,Wunderground v.1.15,2013-07-08 21:12:00,
2013-07-08 14:22:00,63.4,54.2,30.09,WNW,303,5.0,14.0,72,0.00,,,0.00,Wunderground v.1.15,2013-07-08 21:22:00,
2013-07-08 14:27:00,63.4,54.2,30.09,North,5,6.0,14.0,72,0.00,,,0.00,Wunderground v.1.15,2013-07-08 21:27:00,
2013-07-08 14:37:00,63.6,54.8,30.09,North,5,6.0,15.0,73,0.00,,,0.00,Wunderground v.1.15,2013-07-08 21:37:00,
2013-07-08 14:52:00,63.3,54.9,30.09,NNW,336,6.0,6.0,74,0.00,,,0.00,Wunderground v.1.15,2013-07-08 21:52:00,
2013-07-08 15:22:00,63.7,55.6,30.08,NNE,18,5.0,15.0,75,0.00,,,0.00,Wunderground v.1.15,2013-07-08 22:22:00,
2013-07-08 15:27:00,63.3,55.2,30.08,NNE,24,6.0,15.0,75,0.00,,,0.00,Wunderground v.1.15,2013-07-08 22:27:00,
2013-07-08 15:37:00,63.2,55.5,30.08,NNW,338,6.0,9.0,76,0.00,,,0.00,Wunderground v.1.15,2013-07-08 22:37:00,
2013-07-08 15:47:00,62.9,55.2,30.08,NW,311,7.0,16.0,76,0.00,,,0.00,Wunderground v.1.15,2013-07-08 22:47:00,
2013-07-08 16:02:00,62.9,55.6,30.08,WNW,296,7.0,7.0,77,0.00,,,0.00,Wunderground v.1.15,2013-07-08 23:02:00,
2013-07-08 16:17:00,63.2,55.5,30.08,NE,40,6.0,14.0,76,0.00,,,0.00,Wunderground v.1.15,2013-07-08 23:17:00,
2013-07-08 16:47:00,62.3,55.0,30.08,NNE,14,9.0,9.0,77,0.00,,,0.00,Wunderground v.1.15,2013-07-08 23:47:00,
2013-07-08 16:57:00,62.4,55.4,30.08,NNE,17,9.0,21.0,78,0.00,,,0.00,Wunderground v.1.15,2013-07-08 23:57:00,
2013-07-08 17:07:00,62.0,55.1,30.07,NNE,14,11.0,11.0,78,0.00,,,0.00,Wunderground v.1.15,2013-07-09 00:07:00,
2013-07-08 17:17:00,61.9,55.0,30.07,North,360,11.0,20.0,78,0.00,,,0.00,Wunderground v.1.15,2013-07-09 00:17:00,
2013-07-08 17:27:00,61.8,55.2,30.07,NNW,344,10.0,19.0,79,0.00,,,0.00,Wunderground v.1.15,2013-07-09 00:27:00,
2013-07-08 17:37:00,61.7,55.5,30.07,North,355,11.0,23.0,80,0.00,,,0.00,Wunderground v.1.15,2013-07-09 00:37:00,
2013-07-08 17:42:00,61.8,55.6,30.07,WNW,296,10.0,23.0,80,0.00,,,0.00,Wunderground v.1.15,2013-07-09 00:42:00,
2013-07-08 17:57:00,61.6,55.4,30.06,North,351,12.0,22.0,80,0.00,,,0.00,Wunderground v.1.15,2013-07-09 00:57:00,
2013-07-08 18:07:00,61.5,55.3,30.06,North,9,12.0,13.0,80,0.00,,,0.00,Wunderground v.1.15,2013-07-09 01:07:00,
2013-07-08 18:27:00,61.2,55.3,30.06,NNE,14,11.0,19.0,81,0.00,,,0.00,Wunderground v.1.15,2013-07-09 01:27:00,
2013-07-08 18:37:00,61.0,55.1,30.06,NNW,338,10.0,19.0,81,0.00,,,0.00,Wunderground v.1.15,2013-07-09 01:37:00,
2013-07-08 19:17:00,60.5,55.3,30.05,NNE,23,9.0,20.0,83,0.00,,,0.00,Wunderground v.1.15,2013-07-09 02:17:00,
2013-07-08 19:27:00,60.3,55.1,30.06,NNE,15,11.0,16.0,83,0.00,,,0.00,Wunderground v.1.15,2013-07-09 02:27:00,
2013-07-08 19:42:00,59.8,55.0,30.05,North,5,10.0,17.0,84,0.00,,,0.00,Wunderground v.1.15,2013-07-09 02:42:00,
2013-07-08 19:52:00,59.1,54.6,30.06,North,355,10.0,19.0,85,0.00,,,0.00,Wunderground v.1.15,2013-07-09 02:52:00,
2013-07-08 20:07:00,58.6,54.4,30.05,North,5,8.0,14.0,86,0.00,,,0.00,Wunderground v.1.15,2013-07-09 03:07:00,
2013-07-08 20:37:00,57.9,54.1,30.05,North,350,7.0,15.0,87,0.00,,,0.00,Wunderground v.1.15,2013-07-09 03:37:00,
2013-07-08 20:47:00,57.0,53.5,30.05,NNE,14,8.0,15.0,88,0.00,,,0.00,Wunderground v.1.15,2013-07-09 03:47:00,
2013-07-08 21:02:00,57.1,53.9,30.05,North,5,7.0,7.0,89,0.00,,,0.00,Wunderground v.1.15,2013-07-09 04:02:00,
2013-07-08 21:07:00,56.9,53.7,30.05,North,355,7.0,11.0,89,0.00,,,0.00,Wunderground v.1.15,2013-07-09 04:07:00,
2013-07-08 21:12:00,56.9,53.7,30.06,North,355,7.0,7.0,89,0.00,,,0.00,Wunderground v.1.15,2013-07-09 04:12:00,
2013-07-08 21:22:00,56.9,54.0,30.06,NNW,329,4.0,8.0,90,0.00,,,0.00,Wunderground v.1.15,2013-07-09 04:22:00,
2013-07-08 21:27:00,56.9,54.0,30.06,North,350,3.0,8.0,90,0.00,,,0.00,Wunderground v.1.15,2013-07-09 04:27:00,
2013-07-08 21:37:00,56.8,53.9,30.06,North,5,2.0,5.0,90,0.00,,,0.00,Wunderground v.1.15,2013-07-09 04:37:00,
2013-07-08 21:42:00,56.8,53.9,30.07,North,355,3.0,8.0,90,0.00,,,0.00,Wunderground v.1.15,2013-07-09 04:42:00,
2013-07-08 21:52:00,56.8,53.9,30.07,NNE,18,1.0,1.0,90,0.00,,,0.00,Wunderground v.1.15,2013-07-09 04:52:00,
2013-07-08 22:02:00,56.7,53.8,30.07,NNE,18,0.0,1.0,90,0.00,,,0.00,Wunderground v.1.15,2013-07-09 05:02:00,
2013-07-08 22:07:00,56.6,53.7,30.07,NNE,18,0.0,1.0,90,0.00,,,0.00,Wunderground v.1.15,2013-07-09 05:07:00,
2013-07-08 22:17:00,56.4,53.5,30.08,NNE,18,0.0,1.0,90,0.00,,,0.00,Wunderground v.1.15,2013-07-09 05:17:00,
2013-07-08 22:22:00,56.3,53.4,30.07,NNE,18,0.0,0.0,90,0.00,,,0.00,Wunderground v.1.15,2013-07-09 05:22:00,
2013-07-08 22:32:00,56.3,53.4,30.08,NNE,18,1.0,1.0,90,0.00,,,0.00,Wunderground v.1.15,2013-07-09 05:32:00,
2013-07-08 22:37:00,56.3,53.4,30.08,NNE,18,1.0,3.0,90,0.00,,,0.00,Wunderground v.1.15,2013-07-09 05:37:00,
2013-07-08 22:47:00,56.3,53.4,30.08,NNE,18,0.0,3.0,90,0.00,,,0.00,Wunderground v.1.15,2013-07-09 05:47:00,
2013-07-08 22:57:00,56.3,53.7,30.08,NNE,18,0.0,1.0,91,0.00,,,0.00,Wunderground v.1.15,2013-07-09 05:57:00,
2013-07-08 23:07:00,56.3,53.7,30.08,NNE,18,0.0,2.0,91,0.00,,,0.00,Wunderground v.1.15,2013-07-09 06:07:00,
2013-07-08 23:12:00,56.3,53.7,30.08,NNE,18,0.0,0.0,91,0.00,,,0.00,Wunderground v.1.15,2013-07-09 06:12:00,
2013-07-08 23:22:00,56.2,53.6,30.08,NNE,18,0.0,1.0,91,0.00,,,0.00,Wunderground v.1.15,2013-07-09 06:22:00,
2013-07-08 23:32:00,56.3,53.7,30.08,NNE,18,0.0,1.0,91,0.00,,,0.00,Wunderground v.1.15,2013-07-09 06:32:00,
2013-07-08 23:37:00,56.2,53.6,30.08,NNE,18,0.0,1.0,91,0.00,,,0.00,Wunderground v.1.15,2013-07-09 06:37:00,
2013-07-08 23:47:00,56.1,53.8,30.08,NNE,18,0.0,1.0,92,0.00,,,0.00,Wunderground v.1.15,2013-07-09 06:47:00,
2013-07-08 23:57:00,56.4,54.1,30.08,NNE,18,0.0,2.0,92,0.00,,,0.00,Wunderground v.1.15,2013-07-09 06:57:00,